Terminal Aerodrome Forecast
Issued by NWS Dallas/Fort Worth, TX

Home | Current Version | Previous Version | Text Only | Print | Product List | Glossary On
Versions: 1 2 3 4 5 6 7 8 9 10 11 12 13 14 15 16 17 18 19 20 21 22 23 24 25 26 27 28 29
000
FTUS44 KFWD 261518 AAB
TAFACT
TAF AMD
KACT 261518Z 2615/2712 17014KT P6SM VCTS SCT025CB BKN100
     FM262000 17016KT 5SM -TSRA BKN025CB
     FM262300 17015KT P6SM SCT025 BKN100
     FM270200 16015KT P6SM OVC015
     FM270400 16014KT P6SM -TSRA OVC025CB
     FM270800 16014KT P6SM OVC011=

USA.gov is the U.S. government's official web portal to all federal, state and local government web resources and services.